createdAt,value
2022-11-20T05:15:20.970Z,99575.25
2022-11-20T05:17:49.064Z,99578.84
2022-11-20T05:20:15.707Z,99578.19
2022-11-20T05:22:42.212Z,99582.31
2022-11-20T05:25:08.837Z,99586.38
2022-11-20T05:27:35.323Z,99588.31
2022-11-20T05:30:01.798Z,99573.66
2022-11-20T05:32:28.225Z,99580.69
2022-11-20T05:34:54.681Z,99576.34
2022-11-20T05:37:21.120Z,99590.22
2022-11-20T05:39:47.702Z,99574.66
2022-11-20T05:42:32.503Z,99579.28
2022-11-20T05:45:04.958Z,99589.53
2022-11-20T05:47:35.352Z,99575.97
2022-11-20T05:50:02.205Z,99571.81
2022-11-20T05:52:31.793Z,99577.38
2022-11-20T05:54:58.454Z,99572.47
2022-11-20T05:57:24.946Z,99571.63
2022-11-20T05:59:51.405Z,99562.16
2022-11-20T06:02:18.101Z,99572.25
2022-11-20T06:04:44.581Z,99561.47
2022-11-20T06:07:11.403Z,99569.31
2022-11-20T06:09:37.914Z,99576.53
2022-11-20T06:12:04.669Z,99573.47
2022-11-20T06:14:31.142Z,99572.94
2022-11-20T06:16:57.671Z,99577.75
2022-11-20T06:19:24.337Z,99578.38
2022-11-20T06:21:51.098Z,99573.03
2022-11-20T06:24:18.351Z,99566.06
2022-11-20T06:26:45.349Z,99560.34
2022-11-20T06:29:11.825Z,99573.78
2022-11-20T06:31:38.814Z,99579.03
2022-11-20T06:34:07.090Z,99562.50
2022-11-20T06:36:34.220Z,99569.56
2022-11-20T06:39:01.446Z,99577.72
2022-11-20T06:41:28.981Z,99578.44
2022-11-20T06:43:55.772Z,99563.66
2022-11-20T06:46:22.570Z,99557.03
2022-11-20T06:48:50.367Z,99558.00
2022-11-20T06:51:17.009Z,99566.75
2022-11-20T06:53:43.512Z,99557.81
2022-11-20T06:56:10.151Z,99569.09
2022-11-20T06:58:36.911Z,99566.44
2022-11-20T07:01:12.116Z,99561.44
2022-11-20T07:03:39.224Z,99556.97
2022-11-20T07:06:06.333Z,99571.84
2022-11-20T07:08:33.582Z,99577.38
2022-11-20T07:11:01.808Z,99573.03
2022-11-20T07:13:29.374Z,99581.72
2022-11-20T07:15:56.333Z,99581.94
2022-11-20T07:18:22.779Z,99582.22
2022-11-20T07:20:49.302Z,99585.03
2022-11-20T07:23:15.962Z,99585.53
2022-11-20T07:25:42.397Z,99586.50
2022-11-20T07:28:09.183Z,99593.75
2022-11-20T07:30:35.583Z,99578.34
2022-11-20T07:33:02.034Z,99577.13
2022-11-20T07:35:28.764Z,99568.75
2022-11-20T07:37:55.207Z,99572.84
2022-11-20T07:40:21.761Z,99575.97
2022-11-20T07:42:53.411Z,99575.78
2022-11-20T07:45:21.547Z,99582.09
2022-11-20T07:47:48.234Z,99582.38
2022-11-20T07:50:15.354Z,99584.63
2022-11-20T07:52:41.933Z,99588.19
2022-11-20T07:55:09.748Z,99585.22
2022-11-20T07:57:36.390Z,99595.72
2022-11-20T08:00:04.419Z,99603.22
2022-11-20T08:02:40.233Z,99597.47
2022-11-20T08:05:07.987Z,99607.56
2022-11-20T08:07:43.047Z,99603.47
2022-11-20T08:10:11.694Z,99601.78
2022-11-20T08:13:04.025Z,99599.81
2022-11-20T08:15:30.988Z,99607.63
2022-11-20T08:21:02.232Z,99600.22
2022-11-20T08:23:28.913Z,99602.91
2022-11-20T08:25:56.461Z,99603.47
2022-11-20T08:28:23.109Z,99608.41
2022-11-20T08:30:51.294Z,99627.34
2022-11-20T08:33:20.417Z,99622.03
2022-11-20T08:35:48.040Z,99618.28
2022-11-20T08:38:14.657Z,99615.75
2022-11-20T08:41:03.301Z,99618.88
2022-11-20T08:43:30.851Z,99622.78
2022-11-20T08:45:58.005Z,99620.94
2022-11-20T08:48:25.872Z,99621.28
2022-11-20T08:50:54.170Z,99629.13
2022-11-20T08:53:20.693Z,99634.56
2022-11-20T08:55:49.619Z,99621.19
2022-11-20T08:58:20.004Z,99617.50
2022-11-20T09:00:48.470Z,99615.69
2022-11-20T09:03:15.127Z,99614.03
2022-11-20T09:05:42.060Z,99620.19
2022-11-20T09:08:09.656Z,99621.47
2022-11-20T09:10:37.373Z,99621.00
2022-11-20T09:13:04.397Z,99632.31
2022-11-20T09:15:30.916Z,99638.19
2022-11-20T09:18:00.155Z,99630.47
2022-11-20T09:20:29.558Z,99626.63
2022-11-20T09:22:58.313Z,99635.13
2022-11-20T09:25:27.878Z,99632.47
2022-11-20T09:27:58.497Z,99629.13
2022-11-20T09:30:25.791Z,99626.81
2022-11-20T09:32:52.587Z,99625.06
2022-11-20T09:35:24.254Z,99630.69
2022-11-20T09:37:52.250Z,99631.75
2022-11-20T09:40:24.954Z,99622.88
2022-11-20T09:43:08.660Z,99626.63
2022-11-20T09:46:19.399Z,99624.66
2022-11-20T09:49:30.731Z,99628.06
2022-11-20T09:52:26.921Z,99619.75
2022-11-20T09:54:54.059Z,99617.97
2022-11-20T09:57:26.391Z,99624.03
2022-11-20T10:00:02.999Z,99619.44
2022-11-20T10:03:00.489Z,99626.41
2022-11-20T10:05:31.085Z,99620.13
2022-11-20T10:08:18.028Z,99614.00
2022-11-20T10:10:54.030Z,99611.91
2022-11-20T10:13:39.263Z,99612.72
2022-11-20T10:16:41.143Z,99611.81
2022-11-20T10:19:38.935Z,99609.53
2022-11-20T10:22:31.581Z,99598.13
2022-11-20T10:25:14.264Z,99597.34
2022-11-20T10:28:14.930Z,99602.59
2022-11-20T10:30:44.267Z,99604.38
2022-11-20T10:33:18.478Z,99592.75
2022-11-20T10:36:21.149Z,99587.97
2022-11-20T10:38:54.384Z,99584.56
2022-11-20T10:41:28.147Z,99575.06
2022-11-20T10:44:39.169Z,99572.84
2022-11-20T10:47:11.159Z,99582.69
2022-11-20T10:49:37.590Z,99574.78
2022-11-20T10:52:08.306Z,99576.25
2022-11-20T10:54:48.827Z,99578.31
2022-11-20T10:57:22.589Z,99569.47
2022-11-20T11:00:01.910Z,99576.78
2022-11-20T11:02:46.677Z,99584.03
2022-11-20T11:05:23.170Z,99578.91
2022-11-20T11:07:54.091Z,99575.84
2022-11-20T11:10:42.287Z,99574.13
2022-11-20T11:13:19.776Z,99573.50
2022-11-20T11:15:46.233Z,99571.53
2022-11-20T11:18:23.426Z,99560.59
2022-11-20T11:20:54.800Z,99561.53
2022-11-20T11:23:33.966Z,99563.97
2022-11-20T11:26:02.888Z,99556.63
2022-11-20T11:28:29.656Z,99549.75
2022-11-20T11:30:56.764Z,99549.41
2022-11-20T11:33:27.424Z,99549.72
2022-11-20T11:36:00.806Z,99548.25
2022-11-20T11:38:37.887Z,99540.59
2022-11-20T11:41:05.937Z,99534.91
2022-11-20T11:43:54.044Z,99537.81
2022-11-20T11:46:34.655Z,99534.31
2022-11-20T11:49:10.149Z,99528.13
2022-11-20T11:52:01.797Z,99529.06
2022-11-20T11:54:39.654Z,99524.84
2022-11-20T11:57:45.027Z,99519.03
2022-11-20T12:00:17.715Z,99516.50
2022-11-20T12:02:47.295Z,99516.94
2022-11-20T12:05:23.113Z,99515.16
2022-11-20T12:07:55.303Z,99501.13
2022-11-20T12:10:24.908Z,99501.28
2022-11-20T12:13:01.835Z,99493.59
2022-11-20T12:15:34.360Z,99505.00
2022-11-20T12:18:01.588Z,99503.56
2022-11-20T12:20:40.253Z,99502.56
2022-11-20T12:23:28.624Z,99499.78
2022-11-20T12:26:01.921Z,99509.81
2022-11-20T12:28:38.458Z,99510.53
2022-11-20T12:31:11.102Z,99515.69
2022-11-20T12:34:13.978Z,99507.44
2022-11-20T12:36:57.979Z,99499.28
2022-11-20T12:39:43.049Z,99498.56
2022-11-20T12:42:54.446Z,99494.53
2022-11-20T12:45:47.122Z,99494.06
2022-11-20T12:48:27.843Z,99495.19
2022-11-20T12:51:16.612Z,99494.34
2022-11-20T12:54:11.421Z,99496.53
2022-11-20T12:56:40.870Z,99488.34
2022-11-20T12:59:10.187Z,99492.03
2022-11-20T13:01:51.260Z,99487.97
2022-11-20T13:04:58.407Z,99485.81
2022-11-20T13:07:29.033Z,99485.16
2022-11-20T13:10:00.074Z,99486.22
2022-11-20T13:12:32.719Z,99475.13
2022-11-20T13:15:08.029Z,99474.81
2022-11-20T13:17:47.875Z,99467.44
2022-11-20T13:20:17.024Z,99468.50
2022-11-20T13:22:46.718Z,99459.91
2022-11-20T13:25:27.430Z,99455.53
2022-11-20T13:27:55.179Z,99455.22
2022-11-20T13:30:24.057Z,99451.72
2022-11-20T13:33:02.031Z,99445.63
2022-11-20T13:35:37.321Z,99454.69
2022-11-20T13:38:12.637Z,99454.38
2022-11-20T13:40:57.371Z,99452.00
2022-11-20T13:43:39.696Z,99449.13
2022-11-20T13:46:08.433Z,99456.97
2022-11-20T13:48:42.537Z,99456.44
2022-11-20T13:51:27.351Z,99450.09
2022-11-20T13:54:06.151Z,99444.41
2022-11-20T13:56:54.351Z,99449.22
2022-11-20T13:59:42.821Z,99444.94
2022-11-20T14:02:16.038Z,99447.13
2022-11-20T14:04:47.522Z,99435.13
2022-11-20T14:07:14.563Z,99436.94
2022-11-20T14:09:56.338Z,99433.69
2022-11-20T14:12:31.592Z,99426.81
2022-11-20T14:14:58.974Z,99424.88
2022-11-20T14:17:34.475Z,99422.16
2022-11-20T14:20:05.814Z,99423.25
2022-11-20T14:22:32.543Z,99414.34
2022-11-20T14:25:02.245Z,99414.97
2022-11-20T14:27:28.845Z,99412.66
2022-11-20T14:29:55.823Z,99409.81
2022-11-20T14:32:29.188Z,99404.00
2022-11-20T14:35:09.474Z,99396.47
2022-11-20T14:37:39.392Z,99398.53
2022-11-20T14:40:24.755Z,99396.66
2022-11-20T14:42:51.235Z,99409.31
2022-11-20T14:45:18.696Z,99408.31
2022-11-20T14:47:45.883Z,99398.34
2022-11-20T14:50:27.013Z,99387.31
2022-11-20T14:52:58.578Z,99380.50
2022-11-20T14:55:36.191Z,99383.97
2022-11-20T14:58:05.259Z,99377.25
2022-11-20T15:00:36.178Z,99380.66
2022-11-20T15:03:02.660Z,99379.91
2022-11-20T15:05:50.171Z,99379.81
2022-11-20T15:08:17.769Z,99383.25
2022-11-20T15:10:50.232Z,99370.00
2022-11-20T15:13:25.337Z,99366.78
2022-11-20T15:15:55.823Z,99363.47
2022-11-20T15:18:25.376Z,99360.00
2022-11-20T15:20:52.708Z,99360.28
2022-11-20T15:23:20.391Z,99358.38
2022-11-20T15:25:48.133Z,99366.94
2022-11-20T15:28:22.345Z,99359.25
2022-11-20T15:30:50.294Z,99367.63
2022-11-20T15:33:17.790Z,99362.13
2022-11-20T15:35:45.039Z,99353.88
2022-11-20T15:38:11.579Z,99350.22
2022-11-20T15:40:38.102Z,99346.59
2022-11-20T15:43:09.728Z,99348.44
2022-11-20T15:45:59.545Z,99333.66
2022-11-20T15:48:30.199Z,99344.19
2022-11-20T15:51:04.749Z,99334.75
2022-11-20T15:53:31.210Z,99337.44
2022-11-20T15:55:57.786Z,99333.31
2022-11-20T15:58:25.152Z,99324.31
2022-11-20T16:00:51.944Z,99326.94
2022-11-20T16:03:19.201Z,99325.66
2022-11-20T16:05:46.621Z,99320.09
2022-11-20T16:08:13.781Z,99310.84
2022-11-20T16:10:40.784Z,99314.00
2022-11-20T16:13:35.062Z,99316.00
2022-11-20T16:16:10.056Z,99312.25
2022-11-20T16:18:36.507Z,99305.59
2022-11-20T16:21:03.424Z,99307.84
2022-11-20T16:23:30.108Z,99305.28
2022-11-20T16:25:56.589Z,99290.63
2022-11-20T16:28:23.240Z,99284.88
2022-11-20T16:30:49.681Z,99287.84
2022-11-20T16:33:20.699Z,99279.25
2022-11-20T16:35:47.114Z,99275.69
2022-11-20T16:38:13.547Z,99270.91
2022-11-20T16:40:42.054Z,99269.03
2022-11-20T16:43:11.563Z,99264.38
2022-11-20T16:45:43.049Z,99255.94
2022-11-20T16:48:12.853Z,99260.28
2022-11-20T16:51:08.786Z,99265.22
2022-11-20T16:53:35.265Z,99276.38
2022-11-20T16:56:23.696Z,99282.16
2022-11-20T16:58:51.441Z,99262.13
2022-11-20T17:01:48.148Z,99256.41
2022-11-20T17:04:14.760Z,99249.09
2022-11-20T17:06:44.351Z,99244.63
2022-11-20T17:09:11.347Z,99254.00
2022-11-20T17:11:38.291Z,99251.63
2022-11-20T17:14:07.331Z,99248.22
2022-11-20T17:16:36.091Z,99230.78
2022-11-20T17:19:05.183Z,99231.34
2022-11-20T17:21:33.204Z,99233.19
2022-11-20T17:24:04.897Z,99226.94
2022-11-20T17:26:31.920Z,99231.84
2022-11-20T17:29:07.111Z,99217.94
2022-11-20T17:31:34.759Z,99202.19
2022-11-20T17:34:02.534Z,99200.97
2022-11-20T17:36:30.120Z,99202.44
2022-11-20T17:38:56.793Z,99198.44
2022-11-20T17:41:25.467Z,99196.69
2022-11-20T17:43:58.282Z,99196.88
2022-11-20T17:46:27.063Z,99199.91
2022-11-20T17:48:53.557Z,99205.91
2022-11-20T17:51:25.970Z,99199.88
2022-11-20T17:53:55.812Z,99188.53
2022-11-20T17:56:41.122Z,99185.38
2022-11-20T17:59:10.274Z,99178.41
2022-11-20T18:01:37.529Z,99178.63
2022-11-20T18:04:04.094Z,99172.34
2022-11-20T18:06:32.206Z,99172.66
2022-11-20T18:08:59.752Z,99157.66
2022-11-20T18:11:28.692Z,99152.84
2022-11-20T18:14:16.833Z,99147.81
2022-11-20T18:16:49.102Z,99141.06
2022-11-20T18:19:20.545Z,99137.25
2022-11-20T18:21:47.076Z,99135.41
2022-11-20T18:24:13.934Z,99134.53
2022-11-20T18:26:44.346Z,99130.28
2022-11-20T18:29:18.291Z,99126.31
2022-11-20T18:31:44.806Z,99121.88
2022-11-20T18:34:13.987Z,99113.66
2022-11-20T18:36:42.276Z,99114.75
2022-11-20T18:39:10.953Z,99113.84
2022-11-20T18:41:56.821Z,99113.75
2022-11-20T18:44:44.972Z,99104.38
2022-11-20T18:47:15.764Z,99096.84
2022-11-20T18:49:55.038Z,99097.22
2022-11-20T18:52:27.395Z,99101.69
2022-11-20T18:54:54.661Z,99099.50
2022-11-20T18:57:24.159Z,99103.78
2022-11-20T18:59:50.989Z,99087.19
2022-11-20T19:02:19.930Z,99090.56
2022-11-20T19:04:46.815Z,99090.75
2022-11-20T19:07:14.639Z,99088.19
2022-11-20T19:09:42.515Z,99080.50
2022-11-20T19:12:11.380Z,99071.13
2022-11-20T19:14:37.881Z,99078.88
2022-11-20T19:17:06.810Z,99085.88
2022-11-20T19:19:36.517Z,99075.06
2022-11-20T19:22:08.174Z,99084.38
2022-11-20T19:24:35.013Z,99077.25
2022-11-20T19:27:13.885Z,99077.09
2022-11-20T19:29:40.431Z,99070.66
2022-11-20T19:32:07.287Z,99067.38
2022-11-20T19:34:33.781Z,99063.66
2022-11-20T19:37:01.084Z,99067.81
2022-11-20T19:39:27.753Z,99059.72
2022-11-20T19:41:54.346Z,99057.47
2022-11-20T19:44:22.875Z,99054.16
2022-11-20T19:46:50.826Z,99040.75
2022-11-20T19:49:17.750Z,99048.16
2022-11-20T19:51:49.093Z,99050.16
2022-11-20T19:54:16.815Z,99026.41
2022-11-20T19:56:43.614Z,99025.09
2022-11-20T19:59:10.441Z,99030.22
2022-11-20T20:01:37.165Z,99018.84
2022-11-20T20:04:05.463Z,99029.28
2022-11-20T20:06:34.221Z,99024.38
2022-11-20T20:09:02.223Z,99023.56
2022-11-20T20:11:41.280Z,99026.22
2022-11-20T20:14:13.628Z,99009.69
2022-11-20T20:16:40.991Z,99006.78
2022-11-20T20:19:07.480Z,99009.34
2022-11-20T20:21:36.324Z,99010.91
2022-11-20T20:24:03.480Z,99015.88
2022-11-20T20:26:31.544Z,99004.88
2022-11-20T20:28:58.525Z,99008.31
2022-11-20T20:31:27.192Z,99008.22
2022-11-20T20:33:54.513Z,99012.03
2022-11-20T20:36:22.544Z,99007.09
2022-11-20T20:38:56.397Z,99006.00
2022-11-20T20:41:31.488Z,99006.13
2022-11-20T20:44:16.666Z,99008.06
2022-11-20T20:46:43.815Z,99009.03
2022-11-20T20:49:12.539Z,99006.88
2022-11-20T20:51:39.091Z,99008.50
2022-11-20T20:54:05.749Z,99016.16
2022-11-20T20:56:32.465Z,99012.41
2022-11-20T20:58:58.945Z,99016.41
2022-11-20T21:01:28.926Z,99011.84
2022-11-20T21:03:56.757Z,99012.75
2022-11-20T21:06:23.862Z,99001.38
2022-11-20T21:08:50.733Z,99014.88
2022-11-20T21:11:20.005Z,99006.81
2022-11-20T21:13:48.304Z,99013.28
2022-11-20T21:16:16.284Z,99015.28
2022-11-20T21:18:42.743Z,99009.16
2022-11-20T21:21:38.852Z,99012.13
2022-11-20T21:24:36.156Z,99014.25
2022-11-20T21:27:05.209Z,99006.38
2022-11-20T21:29:31.711Z,98997.09
2022-11-20T21:31:58.650Z,99007.72
2022-11-20T21:34:25.749Z,99015.19
2022-11-20T21:36:52.588Z,99006.09
2022-11-20T21:39:21.669Z,99008.00
2022-11-20T21:42:07.108Z,99014.00
2022-11-20T21:44:33.627Z,99008.75
2022-11-20T21:47:00.290Z,99013.53
2022-11-20T21:49:26.822Z,99012.34
2022-11-20T21:51:53.712Z,99013.38
2022-11-20T21:54:20.215Z,99009.75
2022-11-20T21:56:46.709Z,99016.16
2022-11-20T21:59:13.928Z,99007.34
2022-11-20T22:01:40.548Z,98999.59
2022-11-20T22:04:08.105Z,99003.03
2022-11-20T22:06:34.871Z,99001.56
2022-11-20T22:09:02.805Z,99007.97
2022-11-20T22:11:30.035Z,98999.88
2022-11-20T22:14:15.152Z,98990.28
2022-11-20T22:16:41.658Z,98980.31
2022-11-20T22:19:08.266Z,98993.63
2022-11-20T22:21:35.173Z,98985.69
2022-11-20T22:24:01.856Z,98979.31
2022-11-20T22:26:40.012Z,98981.94
2022-11-20T22:29:07.246Z,98978.09
2022-11-20T22:31:33.725Z,98972.66
2022-11-20T22:34:02.139Z,98981.75
2022-11-20T22:36:30.370Z,98980.31
2022-11-20T22:38:57.287Z,98982.19
2022-11-20T22:41:29.800Z,98980.63
2022-11-20T22:43:58.850Z,98979.91
2022-11-20T22:46:27.233Z,98980.84
2022-11-20T22:48:56.182Z,98973.19
2022-11-20T22:51:25.575Z,98977.09
2022-11-20T22:53:52.599Z,98982.94
2022-11-20T22:56:20.072Z,98970.66
2022-11-20T22:58:48.463Z,98973.69
